TimeHST,TemperatureF,Dew PointF,Humidity,Sea Level PressureIn,VisibilityMPH,Wind Direction,Wind SpeedMPH,Gust SpeedMPH,PrecipitationIn,Events,Conditions,WindDirDegrees,DateUTC
12:54 AM,64.0,61.0,90,30.01,10.0,Calm,Calm,-,N/A,,Scattered Clouds,0,2013-03-15 10:54:00
1:34 AM,62.6,60.8,94,29.99,10.0,Calm,Calm,-,N/A,,Mostly Cloudy,0,2013-03-15 11:34:00
1:54 AM,66.0,62.1,87,29.99,10.0,Calm,Calm,-,N/A,,Overcast,0,2013-03-15 11:54:00
2:04 AM,66.2,62.6,88,29.98,10.0,Calm,Calm,-,N/A,,Overcast,0,2013-03-15 12:04:00
2:54 AM,64.9,62.1,90,29.98,10.0,WNW,4.6,-,N/A,,Overcast,300,2013-03-15 12:54:00
3:54 AM,66.0,63.0,90,29.97,10.0,Calm,Calm,-,N/A,,Overcast,0,2013-03-15 13:54:00
4:54 AM,66.0,61.0,84,29.97,10.0,WNW,3.5,-,N/A,,Mostly Cloudy,290,2013-03-15 14:54:00
5:54 AM,64.0,60.1,87,29.98,10.0,Calm,Calm,-,N/A,,Clear,0,2013-03-15 15:54:00
6:54 AM,62.1,59.0,90,29.99,10.0,Calm,Calm,-,N/A,,Clear,0,2013-03-15 16:54:00
7:54 AM,68.0,61.0,78,30.01,10.0,WSW,3.5,-,N/A,,Clear,250,2013-03-15 17:54:00
8:54 AM,70.0,57.9,65,30.01,10.0,WSW,4.6,-,N/A,,Clear,250,2013-03-15 18:54:00
9:54 AM,72.0,59.0,64,30.01,10.0,Variable,6.9,-,N/A,,Partly Cloudy,0,2013-03-15 19:54:00
10:54 AM,73.0,59.0,61,30.01,10.0,WSW,10.4,-,N/A,,Partly Cloudy,250,2013-03-15 20:54:00
11:54 AM,73.9,57.9,57,30.00,10.0,SW,9.2,-,N/A,,Partly Cloudy,230,2013-03-15 21:54:00
12:54 PM,73.9,57.0,55,29.98,10.0,SW,8.1,17.3,N/A,,Mostly Cloudy,220,2013-03-15 22:54:00
1:54 PM,73.9,54.0,50,29.95,10.0,WSW,10.4,-,N/A,,Partly Cloudy,240,2013-03-15 23:54:00
2:54 PM,73.0,55.9,55,29.93,10.0,WSW,10.4,-,N/A,,Clear,250,2013-03-16 00:54:00
3:54 PM,72.0,57.9,61,29.93,10.0,SW,9.2,-,N/A,,Clear,230,2013-03-16 01:54:00
4:54 PM,73.0,59.0,61,29.95,10.0,WSW,10.4,18.4,N/A,,Partly Cloudy,240,2013-03-16 02:54:00
5:54 PM,69.1,63.0,81,29.96,10.0,NW,11.5,-,N/A,,Scattered Clouds,310,2013-03-16 03:54:00
6:54 PM,66.9,62.1,84,29.98,10.0,NW,4.6,-,N/A,,Partly Cloudy,320,2013-03-16 04:54:00
7:54 PM,66.9,62.1,84,30.00,10.0,Calm,Calm,-,N/A,,Scattered Clouds,0,2013-03-16 05:54:00
8:54 PM,66.0,62.1,87,30.01,10.0,East,4.6,-,N/A,,Partly Cloudy,90,2013-03-16 06:54:00
9:54 PM,66.9,61.0,81,30.02,10.0,Calm,Calm,-,N/A,,Mostly Cloudy,0,2013-03-16 07:54:00
10:54 PM,66.0,63.0,90,30.01,10.0,NNW,3.5,-,0.00,,Mostly Cloudy,340,2013-03-16 08:54:00
11:34 PM,66.2,62.6,88,29.99,10.0,Calm,Calm,-,N/A,,Overcast,0,2013-03-16 09:34:00
11:44 PM,66.2,62.6,88,29.98,10.0,Calm,Calm,-,N/A,,Overcast,0,2013-03-16 09:44:00
11:54 PM,66.0,63.0,90,29.99,10.0,NW,3.5,-,N/A,,Overcast,320,2013-03-16 09:54:00